TimeEEST,TemperatureF,Dew PointF,Humidity,Sea Level PressureIn,VisibilityMPH,Wind Direction,Wind SpeedMPH,Gust SpeedMPH,PrecipitationIn,Events,Conditions,WindDirDegrees,DateUTC
12:50 AM,66.2,59.0,78,29.95,-9999.0,NNW,5.8,-,N/A,,Clear,330,2012-10-13 21:50:00
1:50 AM,64.4,59.0,83,29.95,-9999.0,Variable,3.5,-,N/A,,Clear,0,2012-10-13 22:50:00
2:50 AM,66.2,59.0,78,29.95,-9999.0,Variable,3.5,-,N/A,,Clear,0,2012-10-13 23:50:00
3:50 AM,66.2,59.0,78,29.92,-9999.0,Calm,Calm,-,N/A,,Clear,0,2012-10-14 00:50:00
5:50 AM,64.4,59.0,83,29.92,6.2,Calm,Calm,-,N/A,,Partly Cloudy,0,2012-10-14 02:50:00
6:20 AM,64.4,59.0,83,29.92,6.2,Calm,Calm,-,N/A,,Scattered Clouds,0,2012-10-14 03:20:00
6:50 AM,64.4,59.0,83,29.92,6.2,Variable,3.5,-,N/A,,Scattered Clouds,0,2012-10-14 03:50:00
7:20 AM,66.2,59.0,78,29.92,6.2,Calm,Calm,-,N/A,,Mostly Cloudy,0,2012-10-14 04:20:00
7:50 AM,66.2,59.0,78,29.92,6.2,Calm,Calm,-,N/A,,Mostly Cloudy,0,2012-10-14 04:50:00
8:20 AM,68.0,60.8,78,29.92,6.2,Calm,Calm,-,N/A,,Mostly Cloudy,0,2012-10-14 05:20:00
8:50 AM,68.0,60.8,78,29.92,6.2,Calm,Calm,-,N/A,,Mostly Cloudy,0,2012-10-14 05:50:00
9:50 AM,75.2,59.0,57,29.92,6.2,Calm,Calm,-,N/A,,Scattered Clouds,0,2012-10-14 06:50:00
10:20 AM,77.0,59.0,54,29.92,6.2,Calm,Calm,-,N/A,,Scattered Clouds,0,2012-10-14 07:20:00
10:50 AM,78.8,59.0,51,29.92,6.2,Calm,Calm,-,N/A,,Partly Cloudy,0,2012-10-14 07:50:00
11:50 AM,80.6,59.0,48,29.92,6.2,South,4.6,-,N/A,,Partly Cloudy,180,2012-10-14 08:50:00
12:20 PM,80.6,59.0,48,29.92,6.2,South,5.8,-,N/A,,Partly Cloudy,180,2012-10-14 09:20:00
12:50 PM,82.4,57.2,42,29.92,-9999.0,South,8.1,-,N/A,,Clear,180,2012-10-14 09:50:00
1:20 PM,80.6,60.8,51,29.92,-9999.0,South,9.2,-,N/A,,Clear,180,2012-10-14 10:20:00
1:50 PM,80.6,62.6,54,29.89,6.2,South,10.4,-,N/A,,Scattered Clouds,180,2012-10-14 10:50:00
2:20 PM,80.6,62.6,54,29.89,6.2,South,9.2,-,N/A,,Scattered Clouds,180,2012-10-14 11:20:00
2:50 PM,78.8,64.4,61,29.89,6.2,South,10.4,-,N/A,,Mostly Cloudy,180,2012-10-14 11:50:00
3:20 PM,78.8,64.4,61,29.89,6.2,SSE,10.4,-,N/A,,Mostly Cloudy,160,2012-10-14 12:20:00
3:50 PM,80.6,64.4,58,29.89,6.2,SSE,10.4,-,N/A,,Mostly Cloudy,160,2012-10-14 12:50:00
4:20 PM,80.6,64.4,58,29.86,6.2,South,9.2,-,N/A,,Scattered Clouds,170,2012-10-14 13:20:00
4:50 PM,80.6,64.4,58,29.86,6.2,South,10.4,-,N/A,,Scattered Clouds,180,2012-10-14 13:50:00
5:20 PM,78.8,64.4,61,29.86,6.2,SSE,10.4,-,N/A,,Scattered Clouds,160,2012-10-14 14:20:00
5:50 PM,77.0,64.4,65,29.86,6.2,SSE,11.5,-,N/A,,Partly Cloudy,150,2012-10-14 14:50:00
6:20 PM,77.0,66.2,69,29.86,6.2,SE,8.1,-,N/A,,Partly Cloudy,140,2012-10-14 15:20:00
6:50 PM,77.0,66.2,69,29.86,6.2,ESE,5.8,-,N/A,,Scattered Clouds,120,2012-10-14 15:50:00
7:20 PM,77.0,68.0,74,29.89,6.2,ESE,6.9,-,N/A,,Scattered Clouds,120,2012-10-14 16:20:00
7:50 PM,75.2,68.0,78,29.89,6.2,Calm,Calm,-,N/A,Thunderstorm,Thunderstorm,0,2012-10-14 16:50:00
8:20 PM,69.8,60.8,73,29.95,3.7,Calm,Calm,-,N/A,Rain-Thunderstorm,Thunderstorms and Rain,0,2012-10-14 17:20:00
8:50 PM,68.0,60.8,78,29.92,4.3,NNW,8.1,-,N/A,Rain-Thunderstorm,Light Thunderstorms and Rain,340,2012-10-14 17:50:00
9:20 PM,68.0,62.6,83,29.92,4.3,WNW,6.9,-,N/A,Rain,Light Rain,290,2012-10-14 18:20:00
9:50 PM,68.0,62.6,83,29.95,6.2,SSE,5.8,-,N/A,Rain,Light Rain,150,2012-10-14 18:50:00
10:20 PM,68.0,62.6,83,29.95,6.2,Calm,Calm,-,N/A,Rain,Light Rain,0,2012-10-14 19:20:00
10:50 PM,68.0,64.4,88,29.95,6.2,Calm,Calm,-,N/A,,Mostly Cloudy,0,2012-10-14 19:50:00
11:20 PM,68.0,64.4,88,29.95,6.2,Calm,Calm,-,N/A,,Mostly Cloudy,0,2012-10-14 20:20:00
11:50 PM,68.0,64.4,88,29.89,6.2,Calm,Calm,-,N/A,,Mostly Cloudy,0,2012-10-14 20:50:00